Smith Valley, Nevada Weather observations

Data are for 10 minute period ending at time listed.
 Day   Time   Solar   Ave.   Ave.  Ave.  Vector  Max.   Baro.   Total    
  of    of     Rad.   Air    Rel.  Wind   Wind   Wind  Press.  Precip.   
Year   Day            Temp.  Hum.  Speed  Dir.   Gust                    
2026   (PST)  Kw/m2    F      %     mph   deg.    mph    mb.     in.     
-------------------------------------------------------------------------
 121   11:50   1.13   68.2    17    4.0   130     9.0   854.9    0.00 
 121   12:00   1.14   68.2    19    5.9   309    11.8   854.8    0.00 
 121   12:10   1.12   70.0    15    6.7    48    11.1   854.8    0.00 
 121   12:20   1.12   69.3    15    5.6    36    10.7   854.7    0.00 
 121   12:30   1.13   69.2    14    3.3    42     8.0   854.6    0.00 
 121   12:40   1.12   69.7    14    4.1   162     9.6   854.5    0.00 
 121   12:50   1.12   69.8    14    5.2   207     8.6   854.4    0.00 
 121   13:00   1.08   70.3    15    3.1   283     8.5   854.4    0.00 
 121   13:10   1.10   71.4    15    2.3   265     8.0   854.4    0.00 
 121   13:20   1.05   70.9    16    3.7   297    10.4   854.3    0.00 
 121   13:30   1.06   70.0    16    5.7   275    12.1   854.1    0.00 
 121   13:40   1.05   70.5    15    5.2   323     9.9   854.0    0.00 
 121   13:50   1.02   70.8    12    6.4    26    16.0   853.9    0.00 
 121   14:00   0.98   71.1    12    6.7    16    12.7   853.8    0.00 
 121   14:10   0.95   70.8    13    5.4   342    12.9   853.7    0.00 
 121   14:20   0.94   71.1    13    5.2     4    11.1   853.5    0.00 
 121   14:30   0.91   71.8    11    7.4   353    12.5   853.3    0.00 
 121   14:40   0.82   71.3    11    6.4   343     9.9   853.2    0.00 
 121   14:50   0.77   71.4    11    4.9   340     8.6   852.9    0.00 
 121   15:00   0.83   71.5    12    3.7   318     8.2   852.8    0.00 
 121   15:10   0.80   72.5    11    4.5    61    10.0   852.6    0.00 
 121   15:20   0.77   72.6    10    4.2    64     7.2   852.5    0.00 
 121   15:30   0.73   73.1    10    4.5    15    10.7   852.4    0.00 
 121   15:40   0.68   72.4    10    2.7    24     6.2   852.3    0.00 
 121   15:50   0.54   72.9    11    3.0    86     8.2   852.2    0.00 
 121   16:00   0.57   72.5    11    3.9    71    10.4   852.1    0.00 
 121   16:10   0.50   72.4    11    2.8    55     5.5   852.0    0.00 
 121   16:20   0.52   72.4    12    2.9   324     8.8   851.9    0.00 
 121   16:30   0.52   72.2    12    6.2   328    11.0   851.9    0.00 
 121   16:40   0.41   71.8    11    3.6   338     6.4   851.9    0.00 
 121   16:50   0.39   72.6    11    4.5     2     8.2   851.8    0.00 
 121   17:00   0.32   72.2    12    6.9    54    11.7   851.7    0.00 
 121   17:10   0.23   70.2    15    8.0    67    12.0   851.7    0.00 
 121   17:20   0.20   69.8    13    5.5    68     8.7   851.7    0.00 
 121   17:30   0.16   69.4    14    4.0   101     6.6   851.6    0.00 
 121   17:40   0.11   67.9    18    4.5    71     7.1   851.5    0.00 
 121   17:50   0.10   66.3    20    3.3    78     4.9   851.4    0.00 
 121   18:00   0.09   66.1    20    3.4    58     4.9   851.3    0.00 
 121   18:10   0.07   64.8    22    2.9    62     3.8   851.2    0.00 
 121   18:20   0.05   64.1    23    2.5    57     3.5   851.3    0.00 
 121   18:30   0.03   63.8    22    2.0    57     2.5   851.3    0.00 
 121   18:40   0.02   63.3    18    2.2    13     3.0   851.2    0.00 
 121   18:50   0.01   63.9    16    2.1    18     3.5   851.2    0.00 
 121   19:00   0.00   63.2    18    0.9    20     1.7   851.2    0.00 
 121   19:10   0.00   60.6    23    2.1   275     3.9   851.3    0.00 
 121   19:20   0.00   58.9    25    2.0   264     2.7   851.4    0.00 
 121   19:30   0.00   56.5    30    2.0   267     2.7   851.6    0.00 
 121   19:40   0.00   54.8    30    1.9   270     4.8   851.8    0.00 
 121   19:50   0.00   55.1    26    4.0   272     5.0   852.0    0.00 
 121   20:00   0.00   54.6    30    2.6   266     3.9   852.1    0.00 
 121   20:10   0.00   55.8    24    3.1   277     4.2   852.2    0.00 
 121   20:20   0.00   56.5    24    1.9   285     3.2   852.3    0.00 
 121   20:30   0.00   56.2    26    1.4   275     2.9   852.5    0.00 
 121   20:40   0.00   56.2    23    3.3   278     4.6   852.5    0.00 
 121   20:50   0.00   56.5    22    3.1   294     4.8   852.6    0.00 
 121   21:00   0.00   57.9    20    3.5   296     4.4   852.7    0.00 
 121   21:10   0.00   57.3    21    3.2   292     4.8   852.7    0.00 
 121   21:20   0.00   55.1    25    2.2   289     3.1   852.6    0.00 
 121   21:30   0.00   54.3    24    3.8   289     5.0   852.6    0.00 
 121   21:40   0.00   55.1    22    2.8   292     3.7   852.7    0.00 
 121   21:50   0.00   55.4    22    1.1   325     1.6   852.7    0.00 
 121   22:00   0.00   53.7    26    1.3   338     2.6   852.7    0.00 
 121   22:10   0.00   52.4    32    2.9   112     4.0   852.8    0.00 
 121   22:20   0.00   49.6    36    2.7   188     4.8   852.8    0.00 
 121   22:30   0.00   47.6    40    4.8   180     8.0   852.8    0.00 
 121   22:40   0.00   47.9    43    3.4   150     4.6   852.9    0.00 
 121   22:50   0.00   47.3    44    2.9   181     4.5   852.9    0.00 
 121   23:00   0.00   45.8    47    1.4   192     3.0   853.0    0.00 
 121   23:10   0.00   46.2    42    1.5   193     2.7   852.9    0.00 
 121   23:20   0.00   45.5    48    3.8    76     5.6   852.9    0.00 
 121   23:30   0.00   45.2    45    3.0    96     5.0   852.9    0.00 
 121   23:40   0.00   45.6    41    2.5   102     4.9   852.8    0.00 
 121   23:50   0.00   45.6    41    2.1    81     3.6   852.7    0.00 
 122    0:00   0.00   45.2    43    2.7   139     4.3   852.7    0.00 
 122    0:10   0.00   46.0    41    5.3   128     6.4   852.8    0.00 
 122    0:20   0.00   45.6    40    2.6   140     5.7   852.8    0.00 
 122    0:30   0.00   44.5    44    3.1   211     4.7   852.7    0.00 
 122    0:40   0.00   42.8    49    2.2   193     4.2   852.8    0.00 
 122    0:50   0.00   42.8    48    1.1   173     1.8   852.7    0.00 
 122    1:00   0.00   43.1    49    0.0     0     0.0   852.6    0.00 
 122    1:10   0.00   42.4    55    2.1    91     4.7   852.5    0.00 
 122    1:20   0.00   42.8    53    0.9    76     2.6   852.4    0.00 
 122    1:30   0.00   42.0    48    2.1    82     4.3   852.3    0.00 
 122    1:40   0.00   41.9    48    0.4   106     2.9   852.2    0.00 
 122    1:50   0.00   42.0    46    1.2   239     3.1   852.2    0.00 
 122    2:00   0.00   40.2    49    3.0   212     4.1   852.1    0.00 
 122    2:10   0.00   39.5    51    0.5   224     1.9   852.1    0.00 
 122    2:20   0.00   40.3    51    1.8   196     2.5   852.2    0.00 
 122    2:30   0.00   39.9    58    1.1   191     1.9   852.3    0.00 
 122    2:40   0.00   40.6    60    2.1   235     2.6   852.2    0.00 
 122    2:50   0.00   39.9    62    1.5    51     2.8   852.3    0.00 
 122    3:00   0.00   38.7    65    1.7    60     2.5   852.2    0.00 
 122    3:10   0.00   38.6    62    1.7    48     2.1   852.2    0.00 
 122    3:20   0.00   39.7    54    1.0   129     1.8   852.2    0.00 
 122    3:30   0.00   39.1    57    2.0   222     5.5   852.3    0.00 
 122    3:40   0.00   37.7    60    2.1   226     4.6   852.3    0.00 
 122    3:50   0.00   37.9    60    2.4   218     3.7   852.3    0.00 
 122    4:00   0.00   38.3    60    0.5    50     1.6   852.2    0.00 
 122    4:10   0.00   38.1    65    1.5   104     3.0   852.2    0.00 
 122    4:20   0.00   37.7    66    0.7   152     3.1   852.2    0.00 
 122    4:30   0.00   38.6    62    2.3   161     3.3   852.3    0.00 
 122    4:40   0.00   38.6    64    1.1   208     2.1   852.2    0.00 
 122    4:50   0.00   37.8    66    1.1   180     1.9   852.3    0.00 
 122    5:00   0.00   37.9    68    1.2    97     2.2   852.4    0.00 
 122    5:10   0.01   39.2    57    1.9   102     2.6   852.3    0.00 
 122    5:20   0.01   40.4    56    1.9   129     3.5   852.4    0.00 
 122    5:30   0.03   39.9    55    1.3   218     2.5   852.5    0.00 
 122    5:40   0.04   39.1    58    2.4   224     3.8   852.5    0.00 
 122    5:50   0.05   39.6    59    2.3   190     4.3   852.6    0.00 
 122    6:00   0.06   40.8    59    0.8   117     2.7   852.8    0.00 
 122    6:10   0.08   41.8    59    1.0   206     1.8   852.8    0.00 
 122    6:20   0.10   43.5    58    1.4   139     2.2   852.9    0.00 
 122    6:30   0.11   44.7    61    0.5    52     1.5   852.9    0.00 
 122    6:40   0.13   45.3    59    0.5    54     1.6   852.9    0.00 
 122    6:50   0.17   45.9    57    0.6    37     1.5   853.0    0.00 
 122    7:00   0.23   47.0    53    0.5    74     1.2   853.0    0.00 
 122    7:10   0.27   48.9    46    0.9    76     2.4   853.0    0.00 
 122    7:20   0.25   49.8    42    1.9    71     3.1   852.9    0.00 
 122    7:30   0.28   50.6    40    1.6    24     2.6   852.9    0.00 
 122    7:40   0.39   52.4    34    1.3    14     2.6   853.0    0.00 
 122    7:50   0.40   54.3    32    2.0     5     3.8   852.9    0.00 
 122    8:00   0.45   55.3    31    2.2   359     3.9   852.9    0.00 
 122    8:10   0.59   56.9    30    2.1    18     3.8   852.8    0.00 
 122    8:20   0.57   57.9    32    2.9   339     5.6   852.7    0.00 
 122    8:30   0.56   58.3    31    3.5   345     6.7   852.7    0.00 
 122    8:40   0.59   58.8    29    3.7   334     6.4   852.6    0.00 
 122    8:50   0.68   59.6    30    4.5   321     7.2   852.5    0.00 
 122    9:00   0.64   61.3    25    3.5   357     6.6   852.4    0.00 
 122    9:10   0.60   62.1    24    3.3   356     6.9   852.5    0.00 
 122    9:20   0.71   63.0    24    2.8    15     5.1   852.5    0.00 
 122    9:30   0.66   64.5    24    1.8   317     6.0   852.4    0.00 
 122    9:40   0.68   64.7    26    3.4   316     5.7   852.3    0.00 
 122    9:50   0.65   65.6    24    4.0   343     7.1   852.3    0.00 
 122   10:00   0.73   66.5    25    4.2   314     7.7   852.3    0.00 
 122   10:10   0.76   67.3    23    7.0   348    11.3   852.2    0.00 
 122   10:20   0.74   68.3    24    3.9   306    12.6   852.2    0.00 
 122   10:30   0.68   70.1    24    6.0   250    10.7   852.0    0.00 
 122   10:40   0.57   70.9    21    9.6   182    20.3   852.0    0.00 
 122   10:50   0.55   70.7    22    7.4   227    15.2   851.9    0.00 
 122   11:00   0.56   70.5    22    8.9   239    17.0   851.8    0.00 
 122   11:10   0.60   70.7    22    7.5   224    14.4   851.8    0.00 
 122   11:20   0.55   71.6    21   10.5   221    17.4   851.7    0.00 
 122   11:30   0.48   71.1    21   13.1   225    18.4   851.6    0.00 
 122   11:40   0.59   71.1    22   10.5   236    17.5   851.5    0.00 

Return to Smith Valley graphs page.


Western Regional Climate Center,wrcc@dri.edu